sensor_id;sensor_type;location;lat;lon;timestamp;temperature;humidity
59660;DHT22;45534;52.690;6.268;2022-11-20T00:01:14;-2.70;99.90
59660;DHT22;45534;52.690;6.268;2022-11-20T00:03:41;-2.80;99.90
59660;DHT22;45534;52.690;6.268;2022-11-20T00:06:08;-2.80;99.90
59660;DHT22;45534;52.690;6.268;2022-11-20T00:08:34;-2.90;99.90
59660;DHT22;45534;52.690;6.268;2022-11-20T00:11:08;-2.90;99.90
59660;DHT22;45534;52.690;6.268;2022-11-20T00:13:35;-3.00;99.90
59660;DHT22;45534;52.690;6.268;2022-11-20T00:16:03;-3.00;99.90
59660;DHT22;45534;52.690;6.268;2022-11-20T00:18:29;-3.00;99.90
59660;DHT22;45534;52.690;6.268;2022-11-20T00:21:07;-3.00;99.90
59660;DHT22;45534;52.690;6.268;2022-11-20T00:23:33;-3.10;99.90
59660;DHT22;45534;52.690;6.268;2022-11-20T00:26:11;-3.10;99.90
59660;DHT22;45534;52.690;6.268;2022-11-20T00:28:38;-3.10;99.90
59660;DHT22;45534;52.690;6.268;2022-11-20T00:31:13;-3.10;99.90
59660;DHT22;45534;52.690;6.268;2022-11-20T00:33:40;-3.10;99.90
59660;DHT22;45534;52.690;6.268;2022-11-20T00:36:08;-3.10;99.90
59660;DHT22;45534;52.690;6.268;2022-11-20T00:38:34;-3.10;99.90
59660;DHT22;45534;52.690;6.268;2022-11-20T00:41:04;-3.10;99.90
59660;DHT22;45534;52.690;6.268;2022-11-20T00:43:30;-3.20;99.90
59660;DHT22;45534;52.690;6.268;2022-11-20T00:46:02;-3.20;99.90
59660;DHT22;45534;52.690;6.268;2022-11-20T00:48:28;-3.20;99.90
59660;DHT22;45534;52.690;6.268;2022-11-20T00:50:54;-3.10;99.90
59660;DHT22;45534;52.690;6.268;2022-11-20T00:53:20;-3.10;99.90
59660;DHT22;45534;52.690;6.268;2022-11-20T00:55:59;-3.10;99.90
59660;DHT22;45534;52.690;6.268;2022-11-20T00:58:29;-3.10;99.90
59660;DHT22;45534;52.690;6.268;2022-11-20T01:01:07;-3.10;99.90
59660;DHT22;45534;52.690;6.268;2022-11-20T01:03:38;-3.10;99.90
59660;DHT22;45534;52.690;6.268;2022-11-20T01:06:09;-3.20;99.90
59660;DHT22;45534;52.690;6.268;2022-11-20T01:08:36;-3.30;99.90
59660;DHT22;45534;52.690;6.268;2022-11-20T01:11:13;-3.30;99.90
59660;DHT22;45534;52.690;6.268;2022-11-20T01:13:40;-3.30;99.90
59660;DHT22;45534;52.690;6.268;2022-11-20T01:18:58;-3.30;99.90
59660;DHT22;45534;52.690;6.268;2022-11-20T01:21:27;-3.30;99.90
59660;DHT22;45534;52.690;6.268;2022-11-20T01:23:53;-3.40;99.90
59660;DHT22;45534;52.690;6.268;2022-11-20T01:26:25;-3.30;99.90
59660;DHT22;45534;52.690;6.268;2022-11-20T01:28:53;-3.20;99.90
59660;DHT22;45534;52.690;6.268;2022-11-20T01:31:22;-3.20;99.90
59660;DHT22;45534;52.690;6.268;2022-11-20T01:33:50;-3.20;99.90
59660;DHT22;45534;52.690;6.268;2022-11-20T01:36:18;-3.20;99.90
59660;DHT22;45534;52.690;6.268;2022-11-20T01:38:44;-3.10;99.90
59660;DHT22;45534;52.690;6.268;2022-11-20T01:41:11;-3.10;99.90
59660;DHT22;45534;52.690;6.268;2022-11-20T01:43:58;-3.10;99.90
59660;DHT22;45534;52.690;6.268;2022-11-20T01:46:24;-3.10;99.90
59660;DHT22;45534;52.690;6.268;2022-11-20T01:49:54;-3.10;99.90
59660;DHT22;45534;52.690;6.268;2022-11-20T01:52:01;-3.10;99.90
59660;DHT22;45534;52.690;6.268;2022-11-20T01:54:38;-3.10;99.90
59660;DHT22;45534;52.690;6.268;2022-11-20T01:57:06;-3.10;99.90
59660;DHT22;45534;52.690;6.268;2022-11-20T01:59:33;-3.10;99.90
59660;DHT22;45534;52.690;6.268;2022-11-20T02:02:00;-3.10;99.90
59660;DHT22;45534;52.690;6.268;2022-11-20T02:04:26;-3.10;99.90
59660;DHT22;45534;52.690;6.268;2022-11-20T02:07:03;-3.20;99.90
59660;DHT22;45534;52.690;6.268;2022-11-20T02:09:30;-3.20;99.90
59660;DHT22;45534;52.690;6.268;2022-11-20T02:11:56;-3.20;99.90
59660;DHT22;45534;52.690;6.268;2022-11-20T02:14:23;-3.30;99.90
59660;DHT22;45534;52.690;6.268;2022-11-20T02:16:50;-3.20;99.90
59660;DHT22;45534;52.690;6.268;2022-11-20T02:19:27;-3.30;99.90
59660;DHT22;45534;52.690;6.268;2022-11-20T02:22:14;-3.30;99.90
59660;DHT22;45534;52.690;6.268;2022-11-20T02:24:45;-3.30;99.90
59660;DHT22;45534;52.690;6.268;2022-11-20T02:27:14;-3.30;99.90
59660;DHT22;45534;52.690;6.268;2022-11-20T02:29:53;-3.30;99.90
59660;DHT22;45534;52.690;6.268;2022-11-20T02:32:27;-3.40;99.90
59660;DHT22;45534;52.690;6.268;2022-11-20T02:34:53;-3.40;99.90
59660;DHT22;45534;52.690;6.268;2022-11-20T02:37:20;-3.40;99.90
59660;DHT22;45534;52.690;6.268;2022-11-20T02:39:48;-3.50;99.90
59660;DHT22;45534;52.690;6.268;2022-11-20T02:42:14;-3.50;99.90
59660;DHT22;45534;52.690;6.268;2022-11-20T02:44:40;-3.50;99.90
59660;DHT22;45534;52.690;6.268;2022-11-20T02:47:06;-3.50;99.90
59660;DHT22;45534;52.690;6.268;2022-11-20T02:49:31;-3.50;99.90
59660;DHT22;45534;52.690;6.268;2022-11-20T02:51:57;-3.50;99.90
59660;DHT22;45534;52.690;6.268;2022-11-20T02:54:23;-3.50;99.90
59660;DHT22;45534;52.690;6.268;2022-11-20T02:56:49;-3.50;99.90
59660;DHT22;45534;52.690;6.268;2022-11-20T02:59:15;-3.50;99.90
59660;DHT22;45534;52.690;6.268;2022-11-20T03:01:40;-3.50;99.90
59660;DHT22;45534;52.690;6.268;2022-11-20T03:04:06;-3.50;99.90
59660;DHT22;45534;52.690;6.268;2022-11-20T03:06:32;-3.50;99.90
59660;DHT22;45534;52.690;6.268;2022-11-20T03:08:57;-3.50;99.90
59660;DHT22;45534;52.690;6.268;2022-11-20T03:11:23;-3.50;99.90
59660;DHT22;45534;52.690;6.268;2022-11-20T03:13:49;-3.50;99.90
59660;DHT22;45534;52.690;6.268;2022-11-20T03:16:17;-3.50;99.90
59660;DHT22;45534;52.690;6.268;2022-11-20T03:18:43;-3.50;99.90
59660;DHT22;45534;52.690;6.268;2022-11-20T03:21:11;-3.60;99.90
59660;DHT22;45534;52.690;6.268;2022-11-20T03:23:37;-3.60;99.90
59660;DHT22;45534;52.690;6.268;2022-11-20T03:26:16;-3.50;99.90
59660;DHT22;45534;52.690;6.268;2022-11-20T03:28:47;-3.50;99.90
59660;DHT22;45534;52.690;6.268;2022-11-20T03:31:14;-3.60;99.90
59660;DHT22;45534;52.690;6.268;2022-11-20T03:33:41;-3.60;99.90
59660;DHT22;45534;52.690;6.268;2022-11-20T03:36:10;-3.60;99.90
59660;DHT22;45534;52.690;6.268;2022-11-20T03:38:36;-3.50;99.90
59660;DHT22;45534;52.690;6.268;2022-11-20T03:41:04;-3.60;99.90
59660;DHT22;45534;52.690;6.268;2022-11-20T03:43:30;-3.60;99.90
59660;DHT22;45534;52.690;6.268;2022-11-20T03:45:56;-3.60;99.90
59660;DHT22;45534;52.690;6.268;2022-11-20T03:48:22;-3.60;99.90
59660;DHT22;45534;52.690;6.268;2022-11-20T03:50:47;-3.60;99.90
59660;DHT22;45534;52.690;6.268;2022-11-20T03:53:14;-3.60;99.90
59660;DHT22;45534;52.690;6.268;2022-11-20T03:55:40;-3.60;99.90
59660;DHT22;45534;52.690;6.268;2022-11-20T03:58:06;-3.70;99.90
59660;DHT22;45534;52.690;6.268;2022-11-20T04:00:31;-3.70;99.90
59660;DHT22;45534;52.690;6.268;2022-11-20T04:03:01;-3.70;99.90
59660;DHT22;45534;52.690;6.268;2022-11-20T04:05:26;-3.80;99.90
59660;DHT22;45534;52.690;6.268;2022-11-20T04:07:53;-3.80;99.90
59660;DHT22;45534;52.690;6.268;2022-11-20T04:10:18;-3.80;99.90
59660;DHT22;45534;52.690;6.268;2022-11-20T04:12:44;-3.80;99.90
59660;DHT22;45534;52.690;6.268;2022-11-20T04:15:09;-3.90;99.90
59660;DHT22;45534;52.690;6.268;2022-11-20T04:17:35;-3.90;99.90
59660;DHT22;45534;52.690;6.268;2022-11-20T04:20:02;-3.90;99.90
59660;DHT22;45534;52.690;6.268;2022-11-20T04:22:27;-3.80;99.90
59660;DHT22;45534;52.690;6.268;2022-11-20T04:24:53;-3.80;99.90
59660;DHT22;45534;52.690;6.268;2022-11-20T04:27:19;-3.90;99.90
59660;DHT22;45534;52.690;6.268;2022-11-20T04:29:44;-3.90;99.90
59660;DHT22;45534;52.690;6.268;2022-11-20T04:32:10;-3.90;99.90
59660;DHT22;45534;52.690;6.268;2022-11-20T04:34:36;-3.80;99.90
59660;DHT22;45534;52.690;6.268;2022-11-20T04:37:01;-3.80;99.90
59660;DHT22;45534;52.690;6.268;2022-11-20T04:39:27;-3.80;99.90
59660;DHT22;45534;52.690;6.268;2022-11-20T04:41:53;-3.70;99.90
59660;DHT22;45534;52.690;6.268;2022-11-20T04:44:38;-3.70;99.90
59660;DHT22;45534;52.690;6.268;2022-11-20T04:47:04;-3.70;99.90
59660;DHT22;45534;52.690;6.268;2022-11-20T04:49:30;-3.70;99.90
59660;DHT22;45534;52.690;6.268;2022-11-20T04:51:57;-3.70;99.90
59660;DHT22;45534;52.690;6.268;2022-11-20T04:54:23;-3.70;99.90
59660;DHT22;45534;52.690;6.268;2022-11-20T04:56:49;-3.80;99.90
59660;DHT22;45534;52.690;6.268;2022-11-20T04:59:15;-3.80;99.90
59660;DHT22;45534;52.690;6.268;2022-11-20T05:01:40;-3.80;99.90
59660;DHT22;45534;52.690;6.268;2022-11-20T05:04:06;-3.80;99.90
59660;DHT22;45534;52.690;6.268;2022-11-20T05:06:32;-3.90;99.90
59660;DHT22;45534;52.690;6.268;2022-11-20T05:08:58;-3.80;99.90
59660;DHT22;45534;52.690;6.268;2022-11-20T05:11:24;-3.80;99.90
59660;DHT22;45534;52.690;6.268;2022-11-20T05:13:51;-3.80;99.90
59660;DHT22;45534;52.690;6.268;2022-11-20T05:16:19;-3.80;99.90
59660;DHT22;45534;52.690;6.268;2022-11-20T05:18:45;-3.90;99.90
59660;DHT22;45534;52.690;6.268;2022-11-20T05:21:12;-4.00;99.90
59660;DHT22;45534;52.690;6.268;2022-11-20T05:23:38;-4.00;99.90
59660;DHT22;45534;52.690;6.268;2022-11-20T05:26:06;-4.00;99.90
59660;DHT22;45534;52.690;6.268;2022-11-20T05:28:32;-4.00;99.90
59660;DHT22;45534;52.690;6.268;2022-11-20T05:31:09;-4.00;99.90
59660;DHT22;45534;52.690;6.268;2022-11-20T05:33:36;-4.00;99.90
59660;DHT22;45534;52.690;6.268;2022-11-20T05:36:03;-4.00;99.90
59660;DHT22;45534;52.690;6.268;2022-11-20T05:38:29;-4.00;99.90
59660;DHT22;45534;52.690;6.268;2022-11-20T05:40:55;-4.00;99.90
59660;DHT22;45534;52.690;6.268;2022-11-20T05:43:27;-4.10;99.90
59660;DHT22;45534;52.690;6.268;2022-11-20T05:45:54;-4.10;99.90
59660;DHT22;45534;52.690;6.268;2022-11-20T05:48:19;-4.10;99.90
59660;DHT22;45534;52.690;6.268;2022-11-20T05:50:45;-4.00;99.90
59660;DHT22;45534;52.690;6.268;2022-11-20T05:53:11;-4.00;99.90
59660;DHT22;45534;52.690;6.268;2022-11-20T05:55:36;-3.90;99.90
59660;DHT22;45534;52.690;6.268;2022-11-20T05:58:02;-3.90;99.90
59660;DHT22;45534;52.690;6.268;2022-11-20T06:00:27;-3.90;99.90
59660;DHT22;45534;52.690;6.268;2022-11-20T06:02:53;-3.90;99.90
59660;DHT22;45534;52.690;6.268;2022-11-20T06:05:19;-3.90;99.90
59660;DHT22;45534;52.690;6.268;2022-11-20T06:07:44;-3.90;99.90
59660;DHT22;45534;52.690;6.268;2022-11-20T06:10:11;-3.90;99.90
59660;DHT22;45534;52.690;6.268;2022-11-20T06:12:36;-3.90;99.90
59660;DHT22;45534;52.690;6.268;2022-11-20T06:15:03;-3.90;99.90
59660;DHT22;45534;52.690;6.268;2022-11-20T06:17:29;-3.90;99.90
59660;DHT22;45534;52.690;6.268;2022-11-20T06:19:54;-3.90;99.90
59660;DHT22;45534;52.690;6.268;2022-11-20T06:22:20;-3.80;99.90
59660;DHT22;45534;52.690;6.268;2022-11-20T06:24:46;-3.80;99.90
59660;DHT22;45534;52.690;6.268;2022-11-20T06:27:12;-3.80;99.90
59660;DHT22;45534;52.690;6.268;2022-11-20T06:29:38;-3.70;99.90
59660;DHT22;45534;52.690;6.268;2022-11-20T06:32:03;-3.70;99.90
59660;DHT22;45534;52.690;6.268;2022-11-20T06:34:29;-3.70;99.90
59660;DHT22;45534;52.690;6.268;2022-11-20T06:36:56;-3.70;99.90
59660;DHT22;45534;52.690;6.268;2022-11-20T06:39:24;-3.70;99.90
59660;DHT22;45534;52.690;6.268;2022-11-20T06:41:49;-3.60;99.90
59660;DHT22;45534;52.690;6.268;2022-11-20T06:44:15;-3.60;99.90
59660;DHT22;45534;52.690;6.268;2022-11-20T06:46:41;-3.60;99.90
59660;DHT22;45534;52.690;6.268;2022-11-20T06:49:06;-3.50;99.90
59660;DHT22;45534;52.690;6.268;2022-11-20T06:51:32;-3.50;99.90
59660;DHT22;45534;52.690;6.268;2022-11-20T06:53:58;-3.40;99.90
59660;DHT22;45534;52.690;6.268;2022-11-20T06:56:23;-3.40;99.90
59660;DHT22;45534;52.690;6.268;2022-11-20T06:58:49;-3.30;99.90
59660;DHT22;45534;52.690;6.268;2022-11-20T07:01:15;-3.30;99.90
59660;DHT22;45534;52.690;6.268;2022-11-20T07:03:41;-3.20;99.90
59660;DHT22;45534;52.690;6.268;2022-11-20T07:06:08;-3.20;99.90
59660;DHT22;45534;52.690;6.268;2022-11-20T07:08:34;-3.20;99.90
59660;DHT22;45534;52.690;6.268;2022-11-20T07:11:01;-3.20;99.90
59660;DHT22;45534;52.690;6.268;2022-11-20T07:13:28;-3.20;99.90
59660;DHT22;45534;52.690;6.268;2022-11-20T07:15:54;-3.20;99.90
59660;DHT22;45534;52.690;6.268;2022-11-20T07:18:20;-3.20;99.90
59660;DHT22;45534;52.690;6.268;2022-11-20T07:20:46;-3.20;99.90
59660;DHT22;45534;52.690;6.268;2022-11-20T07:23:11;-3.20;99.90
59660;DHT22;45534;52.690;6.268;2022-11-20T07:25:37;-3.10;99.90
59660;DHT22;45534;52.690;6.268;2022-11-20T07:28:03;-3.10;99.90
59660;DHT22;45534;52.690;6.268;2022-11-20T07:30:29;-3.00;99.90
59660;DHT22;45534;52.690;6.268;2022-11-20T07:32:56;-3.00;99.90
59660;DHT22;45534;52.690;6.268;2022-11-20T07:35:25;-3.00;99.90
59660;DHT22;45534;52.690;6.268;2022-11-20T07:37:51;-2.90;99.90
59660;DHT22;45534;52.690;6.268;2022-11-20T07:40:17;-2.90;99.90
59660;DHT22;45534;52.690;6.268;2022-11-20T07:42:50;-2.90;99.90
59660;DHT22;45534;52.690;6.268;2022-11-20T07:45:17;-2.90;99.90
59660;DHT22;45534;52.690;6.268;2022-11-20T07:47:43;-2.90;99.90
59660;DHT22;45534;52.690;6.268;2022-11-20T07:50:09;-2.80;99.90
59660;DHT22;45534;52.690;6.268;2022-11-20T07:52:35;-2.80;99.90
59660;DHT22;45534;52.690;6.268;2022-11-20T07:55:00;-2.80;99.90
59660;DHT22;45534;52.690;6.268;2022-11-20T07:57:26;-2.70;99.90
59660;DHT22;45534;52.690;6.268;2022-11-20T07:59:51;-2.60;99.90
59660;DHT22;45534;52.690;6.268;2022-11-20T08:02:17;-2.60;99.90
59660;DHT22;45534;52.690;6.268;2022-11-20T08:04:43;-2.60;99.90
59660;DHT22;45534;52.690;6.268;2022-11-20T08:07:08;-2.50;99.90
59660;DHT22;45534;52.690;6.268;2022-11-20T08:09:34;-2.50;99.90
59660;DHT22;45534;52.690;6.268;2022-11-20T08:12:00;-2.40;99.90
59660;DHT22;45534;52.690;6.268;2022-11-20T08:14:44;-2.40;99.90
59660;DHT22;45534;52.690;6.268;2022-11-20T08:17:09;-2.30;99.90
59660;DHT22;45534;52.690;6.268;2022-11-20T08:19:35;-2.30;99.90
59660;DHT22;45534;52.690;6.268;2022-11-20T08:22:01;-2.30;99.90
59660;DHT22;45534;52.690;6.268;2022-11-20T08:24:26;-2.20;99.90
59660;DHT22;45534;52.690;6.268;2022-11-20T08:26:52;-2.20;99.90
59660;DHT22;45534;52.690;6.268;2022-11-20T08:29:18;-2.10;99.90
59660;DHT22;45534;52.690;6.268;2022-11-20T08:31:44;-2.10;99.90
59660;DHT22;45534;52.690;6.268;2022-11-20T08:34:09;-2.10;99.90
59660;DHT22;45534;52.690;6.268;2022-11-20T08:36:35;-2.10;99.90
59660;DHT22;45534;52.690;6.268;2022-11-20T08:39:01;-2.00;99.90
59660;DHT22;45534;52.690;6.268;2022-11-20T08:41:27;-2.00;99.90
59660;DHT22;45534;52.690;6.268;2022-11-20T08:43:58;-1.90;99.90
59660;DHT22;45534;52.690;6.268;2022-11-20T08:46:25;-1.90;99.90
59660;DHT22;45534;52.690;6.268;2022-11-20T08:48:51;-1.90;99.90
59660;DHT22;45534;52.690;6.268;2022-11-20T08:51:18;-1.80;99.90
59660;DHT22;45534;52.690;6.268;2022-11-20T08:53:44;-1.80;99.90
59660;DHT22;45534;52.690;6.268;2022-11-20T08:56:10;-1.80;99.90
59660;DHT22;45534;52.690;6.268;2022-11-20T08:58:37;-1.70;99.90
59660;DHT22;45534;52.690;6.268;2022-11-20T09:01:02;-1.60;99.90
59660;DHT22;45534;52.690;6.268;2022-11-20T09:03:28;-1.60;99.90
59660;DHT22;45534;52.690;6.268;2022-11-20T09:06:02;-1.50;99.90
59660;DHT22;45534;52.690;6.268;2022-11-20T09:08:28;-1.50;99.90
59660;DHT22;45534;52.690;6.268;2022-11-20T09:10:55;-1.40;99.90
59660;DHT22;45534;52.690;6.268;2022-11-20T09:13:22;-1.40;99.90
59660;DHT22;45534;52.690;6.268;2022-11-20T09:15:56;-1.40;99.90
59660;DHT22;45534;52.690;6.268;2022-11-20T09:18:23;-1.30;99.90
59660;DHT22;45534;52.690;6.268;2022-11-20T09:20:49;-1.30;99.90
59660;DHT22;45534;52.690;6.268;2022-11-20T09:23:15;-1.20;99.90
59660;DHT22;45534;52.690;6.268;2022-11-20T09:25:42;-1.20;99.90
59660;DHT22;45534;52.690;6.268;2022-11-20T09:28:08;-1.10;99.90
59660;DHT22;45534;52.690;6.268;2022-11-20T09:30:33;-1.00;99.90
59660;DHT22;45534;52.690;6.268;2022-11-20T09:32:59;-1.00;99.90
59660;DHT22;45534;52.690;6.268;2022-11-20T09:35:25;-0.90;99.90
59660;DHT22;45534;52.690;6.268;2022-11-20T09:37:50;-0.90;99.90
59660;DHT22;45534;52.690;6.268;2022-11-20T09:40:26;-0.80;99.90
59660;DHT22;45534;52.690;6.268;2022-11-20T09:54:13;-0.50;99.90
59660;DHT22;45534;52.690;6.268;2022-11-20T09:56:47;-0.40;99.90
59660;DHT22;45534;52.690;6.268;2022-11-20T09:59:41;-0.40;99.90
59660;DHT22;45534;52.690;6.268;2022-11-20T10:02:28;-0.30;99.90
59660;DHT22;45534;52.690;6.268;2022-11-20T10:07:43;-0.20;99.90
59660;DHT22;45534;52.690;6.268;2022-11-20T10:18:40;0.00;99.90
59660;DHT22;45534;52.690;6.268;2022-11-20T10:29:32;0.30;99.90
59660;DHT22;45534;52.690;6.268;2022-11-20T10:32:17;0.40;99.90
59660;DHT22;45534;52.690;6.268;2022-11-20T10:34:51;0.50;99.90
59660;DHT22;45534;52.690;6.268;2022-11-20T10:37:24;0.70;99.90
59660;DHT22;45534;52.690;6.268;2022-11-20T10:39:58;0.80;99.90
59660;DHT22;45534;52.690;6.268;2022-11-20T10:42:46;1.00;99.90
59660;DHT22;45534;52.690;6.268;2022-11-20T10:48:14;1.20;99.90
59660;DHT22;45534;52.690;6.268;2022-11-20T10:51:12;1.20;99.90
59660;DHT22;45534;52.690;6.268;2022-11-20T10:54:08;1.20;99.90
59660;DHT22;45534;52.690;6.268;2022-11-20T11:01:50;1.20;99.90
59660;DHT22;45534;52.690;6.268;2022-11-20T11:04:35;1.20;99.90
59660;DHT22;45534;52.690;6.268;2022-11-20T11:07:15;1.30;99.90
59660;DHT22;45534;52.690;6.268;2022-11-20T11:09:48;1.30;99.90
59660;DHT22;45534;52.690;6.268;2022-11-20T11:12:14;1.30;99.90
59660;DHT22;45534;52.690;6.268;2022-11-20T11:14:50;1.40;99.90
59660;DHT22;45534;52.690;6.268;2022-11-20T11:17:46;1.40;99.90
59660;DHT22;45534;52.690;6.268;2022-11-20T11:20:21;1.40;99.90
59660;DHT22;45534;52.690;6.268;2022-11-20T11:22:53;1.50;99.90
59660;DHT22;45534;52.690;6.268;2022-11-20T11:25:24;1.50;99.90
59660;DHT22;45534;52.690;6.268;2022-11-20T11:27:51;1.60;99.90
59660;DHT22;45534;52.690;6.268;2022-11-20T11:30:19;1.70;99.90
59660;DHT22;45534;52.690;6.268;2022-11-20T11:32:45;1.80;99.90
59660;DHT22;45534;52.690;6.268;2022-11-20T11:35:23;1.90;99.90
59660;DHT22;45534;52.690;6.268;2022-11-20T11:37:50;2.00;99.90
59660;DHT22;45534;52.690;6.268;2022-11-20T11:40:18;2.30;99.90
59660;DHT22;45534;52.690;6.268;2022-11-20T11:42:52;2.70;99.90
59660;DHT22;45534;52.690;6.268;2022-11-20T11:45:19;3.20;99.90
59660;DHT22;45534;52.690;6.268;2022-11-20T11:47:48;3.90;99.90
59660;DHT22;45534;52.690;6.268;2022-11-20T11:50:20;4.80;99.90
59660;DHT22;45534;52.690;6.268;2022-11-20T11:53:09;5.50;99.90
59660;DHT22;45534;52.690;6.268;2022-11-20T11:56:08;5.60;99.90
59660;DHT22;45534;52.690;6.268;2022-11-20T11:58:47;5.20;99.90
59660;DHT22;45534;52.690;6.268;2022-11-20T12:04:17;4.00;99.90
59660;DHT22;45534;52.690;6.268;2022-11-20T12:06:48;3.50;99.90
59660;DHT22;45534;52.690;6.268;2022-11-20T12:09:18;3.30;99.90
59660;DHT22;45534;52.690;6.268;2022-11-20T12:11:54;3.00;99.90
59660;DHT22;45534;52.690;6.268;2022-11-20T12:14:40;2.90;99.90
59660;DHT22;45534;52.690;6.268;2022-11-20T12:17:11;2.80;99.90
59660;DHT22;45534;52.690;6.268;2022-11-20T12:19:37;2.80;99.90
59660;DHT22;45534;52.690;6.268;2022-11-20T12:30:14;2.60;99.90
59660;DHT22;45534;52.690;6.268;2022-11-20T12:43:26;2.50;99.90
59660;DHT22;45534;52.690;6.268;2022-11-20T12:46:47;2.40;99.90
59660;DHT22;45534;52.690;6.268;2022-11-20T12:52:25;2.40;99.90
59660;DHT22;45534;52.690;6.268;2022-11-20T13:00:07;2.30;99.90
59660;DHT22;45534;52.690;6.268;2022-11-20T13:08:15;2.40;99.90
59660;DHT22;45534;52.690;6.268;2022-11-20T13:10:51;2.40;99.90
59660;DHT22;45534;52.690;6.268;2022-11-20T13:13:48;2.40;99.90
59660;DHT22;45534;52.690;6.268;2022-11-20T13:18:56;2.60;99.90
59660;DHT22;45534;52.690;6.268;2022-11-20T13:21:44;2.60;99.90
59660;DHT22;45534;52.690;6.268;2022-11-20T13:29:29;2.70;99.90
59660;DHT22;45534;52.690;6.268;2022-11-20T13:34:29;2.70;99.90
59660;DHT22;45534;52.690;6.268;2022-11-20T13:36:57;2.70;99.90
59660;DHT22;45534;52.690;6.268;2022-11-20T13:39:28;2.70;99.90
59660;DHT22;45534;52.690;6.268;2022-11-20T13:42:18;2.70;99.90
59660;DHT22;45534;52.690;6.268;2022-11-20T13:44:53;2.60;99.90
59660;DHT22;45534;52.690;6.268;2022-11-20T13:47:27;2.70;99.90
59660;DHT22;45534;52.690;6.268;2022-11-20T13:49:57;2.60;99.90
59660;DHT22;45534;52.690;6.268;2022-11-20T14:00:21;2.50;99.90
59660;DHT22;45534;52.690;6.268;2022-11-20T14:05:35;2.40;99.90
59660;DHT22;45534;52.690;6.268;2022-11-20T14:08:04;2.40;99.90
59660;DHT22;45534;52.690;6.268;2022-11-20T14:10:31;2.30;99.90
59660;DHT22;45534;52.690;6.268;2022-11-20T14:12:57;2.30;99.90
59660;DHT22;45534;52.690;6.268;2022-11-20T14:15:33;2.30;99.90
59660;DHT22;45534;52.690;6.268;2022-11-20T14:18:10;2.30;99.90
59660;DHT22;45534;52.690;6.268;2022-11-20T14:20:37;2.30;99.90
59660;DHT22;45534;52.690;6.268;2022-11-20T14:23:04;2.30;99.90
59660;DHT22;45534;52.690;6.268;2022-11-20T14:25:31;2.30;99.90
59660;DHT22;45534;52.690;6.268;2022-11-20T14:28:01;2.30;99.90
59660;DHT22;45534;52.690;6.268;2022-11-20T14:30:37;2.30;99.90
59660;DHT22;45534;52.690;6.268;2022-11-20T14:33:04;2.30;99.90
59660;DHT22;45534;52.690;6.268;2022-11-20T14:35:35;2.30;99.90
59660;DHT22;45534;52.690;6.268;2022-11-20T14:38:03;2.30;99.90
59660;DHT22;45534;52.690;6.268;2022-11-20T14:40:33;2.20;99.90
59660;DHT22;45534;52.690;6.268;2022-11-20T14:43:24;2.20;99.90
59660;DHT22;45534;52.690;6.268;2022-11-20T14:46:09;2.20;99.90
59660;DHT22;45534;52.690;6.268;2022-11-20T14:48:55;2.20;99.90
59660;DHT22;45534;52.690;6.268;2022-11-20T14:51:35;2.20;99.90
59660;DHT22;45534;52.690;6.268;2022-11-20T14:56:41;2.20;99.90
59660;DHT22;45534;52.690;6.268;2022-11-20T14:59:08;2.20;99.90
59660;DHT22;45534;52.690;6.268;2022-11-20T15:01:35;2.10;99.90
59660;DHT22;45534;52.690;6.268;2022-11-20T15:04:11;2.20;99.90
59660;DHT22;45534;52.690;6.268;2022-11-20T15:06:37;2.10;99.90
59660;DHT22;45534;52.690;6.268;2022-11-20T15:09:04;2.10;99.90
59660;DHT22;45534;52.690;6.268;2022-11-20T15:11:33;2.20;99.90
59660;DHT22;45534;52.690;6.268;2022-11-20T15:14:04;2.10;99.90
59660;DHT22;45534;52.690;6.268;2022-11-20T15:16:31;2.10;99.90
59660;DHT22;45534;52.690;6.268;2022-11-20T15:18:57;2.10;99.90
59660;DHT22;45534;52.690;6.268;2022-11-20T15:21:22;2.10;99.90
59660;DHT22;45534;52.690;6.268;2022-11-20T15:23:48;2.10;99.90
59660;DHT22;45534;52.690;6.268;2022-11-20T15:26:21;2.10;99.90
59660;DHT22;45534;52.690;6.268;2022-11-20T15:28:48;2.10;99.90
59660;DHT22;45534;52.690;6.268;2022-11-20T15:31:18;2.10;99.90
59660;DHT22;45534;52.690;6.268;2022-11-20T15:33:44;2.10;99.90
59660;DHT22;45534;52.690;6.268;2022-11-20T15:36:10;2.10;99.90
59660;DHT22;45534;52.690;6.268;2022-11-20T15:38:35;2.10;99.90
59660;DHT22;45534;52.690;6.268;2022-11-20T15:41:01;2.10;99.90
59660;DHT22;45534;52.690;6.268;2022-11-20T15:43:27;2.10;99.90
59660;DHT22;45534;52.690;6.268;2022-11-20T15:45:59;2.10;99.90
59660;DHT22;45534;52.690;6.268;2022-11-20T15:48:53;2.10;99.90
59660;DHT22;45534;52.690;6.268;2022-11-20T15:51:33;2.10;99.90
59660;DHT22;45534;52.690;6.268;2022-11-20T15:54:00;2.10;99.90
59660;DHT22;45534;52.690;6.268;2022-11-20T15:56:27;2.10;99.90
59660;DHT22;45534;52.690;6.268;2022-11-20T15:58:53;2.10;99.90
59660;DHT22;45534;52.690;6.268;2022-11-20T16:01:21;2.10;99.90
59660;DHT22;45534;52.690;6.268;2022-11-20T16:03:47;2.10;99.90
59660;DHT22;45534;52.690;6.268;2022-11-20T16:06:13;2.10;99.90
59660;DHT22;45534;52.690;6.268;2022-11-20T16:08:41;2.20;99.90
59660;DHT22;45534;52.690;6.268;2022-11-20T16:11:08;2.20;99.90
59660;DHT22;45534;52.690;6.268;2022-11-20T16:13:35;2.20;99.90
59660;DHT22;45534;52.690;6.268;2022-11-20T16:16:25;2.20;99.90
59660;DHT22;45534;52.690;6.268;2022-11-20T16:18:54;2.20;99.90
59660;DHT22;45534;52.690;6.268;2022-11-20T16:21:19;2.10;99.90
59660;DHT22;45534;52.690;6.268;2022-11-20T16:23:45;2.20;99.90
59660;DHT22;45534;52.690;6.268;2022-11-20T16:26:20;2.20;99.90
59660;DHT22;45534;52.690;6.268;2022-11-20T16:28:46;2.10;99.90
59660;DHT22;45534;52.690;6.268;2022-11-20T16:31:15;2.20;99.90
59660;DHT22;45534;52.690;6.268;2022-11-20T16:33:41;2.20;99.90
59660;DHT22;45534;52.690;6.268;2022-11-20T16:38:34;2.20;99.90
59660;DHT22;45534;52.690;6.268;2022-11-20T16:41:00;2.20;99.90
59660;DHT22;45534;52.690;6.268;2022-11-20T16:43:26;2.20;99.90
59660;DHT22;45534;52.690;6.268;2022-11-20T16:45:52;2.20;99.90
59660;DHT22;45534;52.690;6.268;2022-11-20T16:48:18;2.20;99.90
59660;DHT22;45534;52.690;6.268;2022-11-20T16:50:51;2.20;99.90
59660;DHT22;45534;52.690;6.268;2022-11-20T16:53:21;2.20;99.90
59660;DHT22;45534;52.690;6.268;2022-11-20T16:55:47;2.20;99.90
59660;DHT22;45534;52.690;6.268;2022-11-20T16:58:13;2.20;99.90
59660;DHT22;45534;52.690;6.268;2022-11-20T17:00:40;2.20;99.90
59660;DHT22;45534;52.690;6.268;2022-11-20T17:03:06;2.20;99.90
59660;DHT22;45534;52.690;6.268;2022-11-20T17:05:33;2.20;99.90
59660;DHT22;45534;52.690;6.268;2022-11-20T17:07:59;2.20;99.90
59660;DHT22;45534;52.690;6.268;2022-11-20T17:10:25;2.20;99.90
59660;DHT22;45534;52.690;6.268;2022-11-20T17:12:50;2.10;99.90
59660;DHT22;45534;52.690;6.268;2022-11-20T17:15:16;2.20;99.90
59660;DHT22;45534;52.690;6.268;2022-11-20T17:17:42;2.20;99.90
59660;DHT22;45534;52.690;6.268;2022-11-20T17:20:09;2.20;99.90
59660;DHT22;45534;52.690;6.268;2022-11-20T17:22:34;2.10;99.90
59660;DHT22;45534;52.690;6.268;2022-11-20T17:25:00;2.20;99.90
59660;DHT22;45534;52.690;6.268;2022-11-20T17:27:26;2.10;99.90
59660;DHT22;45534;52.690;6.268;2022-11-20T17:29:51;2.20;99.90
59660;DHT22;45534;52.690;6.268;2022-11-20T17:32:19;2.20;99.90
59660;DHT22;45534;52.690;6.268;2022-11-20T17:34:45;2.10;99.90